createdAt,value
2023-05-11T00:00:03.392Z,5.10
2023-05-11T00:02:58.507Z,5.80
2023-05-11T00:05:30.839Z,6.40
2023-05-11T00:08:04.410Z,5.90
2023-05-11T00:10:36.743Z,5.60
2023-05-11T00:13:09.013Z,5.60
2023-05-11T00:15:42.152Z,5.40
2023-05-11T00:18:17.533Z,6.20
2023-05-11T00:20:58.846Z,5.80
2023-05-11T00:23:37.254Z,5.60
2023-05-11T00:26:16.260Z,6.00
2023-05-11T00:28:49.651Z,6.50
2023-05-11T00:31:30.415Z,5.80
2023-05-11T00:34:13.053Z,6.30
2023-05-11T00:36:45.731Z,7.10
2023-05-11T00:39:20.017Z,7.60
2023-05-11T00:41:57.462Z,8.00
2023-05-11T00:44:32.996Z,9.60
2023-05-11T00:47:08.431Z,10.20
2023-05-11T00:49:40.945Z,11.00
2023-05-11T00:52:14.128Z,9.40
2023-05-11T00:54:49.792Z,10.70
2023-05-11T00:57:22.550Z,9.10
2023-05-11T00:59:58.118Z,8.00
2023-05-11T01:02:34.098Z,6.80
2023-05-11T01:05:07.431Z,6.70
2023-05-11T01:07:55.029Z,6.80
2023-05-11T01:10:34.429Z,6.90
2023-05-11T01:13:18.588Z,7.00
2023-05-11T01:15:56.984Z,6.40
2023-05-11T01:18:37.356Z,5.90
2023-05-11T01:21:18.537Z,6.30
2023-05-11T01:24:29.909Z,7.10
2023-05-11T01:27:23.904Z,6.90
2023-05-11T01:30:29.331Z,7.00
2023-05-11T01:33:07.489Z,6.90
2023-05-11T01:35:45.862Z,6.10
2023-05-11T01:38:22.770Z,6.50
2023-05-11T01:40:59.094Z,6.60
2023-05-11T01:43:35.410Z,6.50
2023-05-11T01:46:10.494Z,6.40
2023-05-11T01:48:48.213Z,7.30
2023-05-11T01:51:21.297Z,5.90
2023-05-11T01:53:54.786Z,6.20
2023-05-11T01:56:35.527Z,6.50
2023-05-11T01:59:12.903Z,5.90
2023-05-11T02:01:48.064Z,6.20
2023-05-11T02:04:25.190Z,7.00
2023-05-11T02:06:59.247Z,6.20
2023-05-11T02:09:41.940Z,6.50
2023-05-11T02:12:19.919Z,6.50
2023-05-11T02:14:58.502Z,6.20
2023-05-11T02:17:31.825Z,6.40
2023-05-11T02:20:06.407Z,6.30
2023-05-11T02:22:40.267Z,6.90
2023-05-11T02:25:16.731Z,6.60
2023-05-11T02:27:53.235Z,7.30
2023-05-11T02:36:39.743Z,7.00
2023-05-11T02:39:19.422Z,6.20
2023-05-11T02:41:59.728Z,6.80
2023-05-11T02:44:41.496Z,6.10
2023-05-11T02:47:19.413Z,6.70
2023-05-11T02:49:54.337Z,7.50
2023-05-11T02:52:28.605Z,6.50
2023-05-11T02:55:05.975Z,7.30
2023-05-11T02:57:45.891Z,7.40
2023-05-11T03:00:20.602Z,7.20
2023-05-11T03:02:56.713Z,7.80
2023-05-11T03:05:32.198Z,8.80
2023-05-11T03:08:07.423Z,8.90
2023-05-11T03:10:41.260Z,8.30
2023-05-11T03:13:17.462Z,9.70
2023-05-11T03:15:51.040Z,11.20
2023-05-11T03:18:28.843Z,9.10
2023-05-11T03:21:04.037Z,11.10
2023-05-11T03:23:42.904Z,13.60
2023-05-11T03:26:24.029Z,14.00
2023-05-11T03:29:00.367Z,15.50
2023-05-11T03:31:36.032Z,16.40
2023-05-11T03:34:11.376Z,18.60
2023-05-11T03:36:47.078Z,20.90
2023-05-11T03:39:27.240Z,20.70
2023-05-11T03:42:01.187Z,18.20
2023-05-11T03:44:46.077Z,17.50
2023-05-11T03:47:25.075Z,17.70
2023-05-11T03:50:05.239Z,18.60
2023-05-11T03:52:39.329Z,16.80
2023-05-11T03:55:13.127Z,17.80
2023-05-11T03:57:47.149Z,14.40
2023-05-11T04:00:22.873Z,14.40
2023-05-11T04:02:56.173Z,12.40
2023-05-11T04:05:33.908Z,12.00
2023-05-11T04:08:10.263Z,10.90
2023-05-11T04:10:42.428Z,10.40
2023-05-11T04:13:14.772Z,9.90
2023-05-11T04:15:47.791Z,11.20
2023-05-11T04:18:19.923Z,11.50
2023-05-11T04:20:52.027Z,11.30
2023-05-11T04:23:24.111Z,10.90
2023-05-11T04:25:59.815Z,11.80
2023-05-11T04:28:31.997Z,11.20
2023-05-11T04:31:04.188Z,10.40
2023-05-11T04:33:36.437Z,7.60
2023-05-11T04:36:09.739Z,8.10
2023-05-11T04:38:42.116Z,7.10
2023-05-11T04:41:15.318Z,7.60
2023-05-11T04:43:47.938Z,9.30
2023-05-11T04:46:20.193Z,7.40
2023-05-11T04:48:52.594Z,7.50
2023-05-11T04:51:24.951Z,7.40
2023-05-11T04:53:57.646Z,7.50
2023-05-11T04:56:30.011Z,7.70
2023-05-11T04:59:03.983Z,7.50
2023-05-11T05:01:37.754Z,9.10
2023-05-11T05:04:10.289Z,8.00
2023-05-11T05:06:43.959Z,8.20
2023-05-11T05:09:16.522Z,8.50
2023-05-11T05:11:48.750Z,8.00
2023-05-11T05:14:21.796Z,8.50
2023-05-11T05:16:54.738Z,8.50
2023-05-11T05:19:27.087Z,8.80
2023-05-11T05:22:01.711Z,8.20
2023-05-11T05:24:35.774Z,7.90
2023-05-11T05:27:08.831Z,8.70
2023-05-11T05:29:41.544Z,7.00
2023-05-11T05:32:14.111Z,6.90
2023-05-11T05:34:47.055Z,6.60
2023-05-11T05:37:20.225Z,7.30
2023-05-11T05:39:54.764Z,6.10
2023-05-11T05:42:27.367Z,6.60
2023-05-11T05:44:59.751Z,7.20
2023-05-11T05:47:32.869Z,6.60
2023-05-11T05:50:05.420Z,7.10
2023-05-11T05:52:38.757Z,6.40
2023-05-11T05:55:11.685Z,6.90
2023-05-11T05:57:44.540Z,6.70
2023-05-11T06:00:18.837Z,6.20
2023-05-11T06:02:57.042Z,8.00
2023-05-11T06:05:31.356Z,6.60
2023-05-11T06:08:10.464Z,10.30
2023-05-11T06:10:43.490Z,6.90
2023-05-11T06:13:16.539Z,7.20
2023-05-11T06:15:49.113Z,7.20
2023-05-11T06:18:29.121Z,7.80
2023-05-11T06:21:02.548Z,7.80
2023-05-11T06:23:36.436Z,11.70
2023-05-11T06:26:08.649Z,8.30
2023-05-11T06:28:40.901Z,10.00
2023-05-11T06:31:16.279Z,10.30
2023-05-11T06:33:49.263Z,16.20
2023-05-11T06:36:26.720Z,9.40
2023-05-11T06:38:59.163Z,9.70
2023-05-11T06:41:32.559Z,8.40
2023-05-11T06:44:05.508Z,7.30
2023-05-11T06:46:42.229Z,7.20
2023-05-11T06:49:14.728Z,10.70
2023-05-11T06:51:46.846Z,7.50
2023-05-11T06:54:19.505Z,7.40
2023-05-11T06:56:52.363Z,8.10
2023-05-11T06:59:25.134Z,16.20
2023-05-11T07:01:57.446Z,7.70
2023-05-11T07:04:29.977Z,6.50
2023-05-11T07:07:02.301Z,7.00
2023-05-11T07:09:34.530Z,6.50
2023-05-11T07:12:07.309Z,7.00
2023-05-11T07:14:39.655Z,8.80
2023-05-11T07:17:14.107Z,6.90
2023-05-11T07:19:46.448Z,10.00
2023-05-11T07:22:18.526Z,9.20
2023-05-11T07:24:50.588Z,11.10
2023-05-11T07:27:22.968Z,9.00
2023-05-11T07:29:55.153Z,9.70
2023-05-11T07:32:27.604Z,10.10
2023-05-11T07:34:59.754Z,7.20
2023-05-11T07:37:31.888Z,9.20
2023-05-11T07:40:09.118Z,8.00
2023-05-11T07:42:41.368Z,8.00
2023-05-11T07:45:14.743Z,6.90
2023-05-11T07:47:47.128Z,6.60
2023-05-11T07:50:22.959Z,5.70
2023-05-11T07:52:58.675Z,6.80
2023-05-11T07:55:31.434Z,6.30
2023-05-11T07:58:06.178Z,6.50
2023-05-11T08:00:40.661Z,8.70
2023-05-11T08:03:13.316Z,19.20
2023-05-11T08:05:45.464Z,8.50
2023-05-11T08:08:17.776Z,9.10
2023-05-11T08:10:49.872Z,7.70
2023-05-11T08:13:22.314Z,6.20
2023-05-11T08:15:54.497Z,5.50
2023-05-11T08:18:26.843Z,7.20
2023-05-11T08:20:59.061Z,9.40
2023-05-11T08:23:33.063Z,7.70
2023-05-11T08:26:05.423Z,7.40
2023-05-11T08:28:37.586Z,8.50
2023-05-11T08:31:10.543Z,7.80
2023-05-11T08:33:42.898Z,12.80
2023-05-11T08:36:17.923Z,16.10
2023-05-11T08:38:50.348Z,7.30
2023-05-11T08:41:23.893Z,6.00
2023-05-11T08:43:58.950Z,7.30
2023-05-11T08:46:36.918Z,5.50
2023-05-11T08:49:10.261Z,4.90
2023-05-11T08:51:42.751Z,5.40
2023-05-11T08:54:14.973Z,5.30
2023-05-11T08:56:48.930Z,5.50
2023-05-11T08:59:21.668Z,5.00
2023-05-11T09:01:55.513Z,5.00
2023-05-11T09:04:29.111Z,5.40
2023-05-11T09:07:01.292Z,4.00
2023-05-11T09:09:34.603Z,5.00
2023-05-11T09:12:09.095Z,4.40
2023-05-11T09:14:41.333Z,4.00
2023-05-11T09:17:16.034Z,4.10
2023-05-11T09:20:01.971Z,7.40
2023-05-11T09:22:36.583Z,4.40
2023-05-11T09:25:12.213Z,3.40
2023-05-11T09:27:49.141Z,4.00
2023-05-11T09:30:23.912Z,3.90
2023-05-11T09:32:57.780Z,3.90
2023-05-11T09:35:31.577Z,3.70
2023-05-11T09:38:06.679Z,3.60
2023-05-11T09:40:43.181Z,3.10
2023-05-11T09:43:21.845Z,3.30
2023-05-11T09:45:55.344Z,3.30
2023-05-11T09:48:34.118Z,2.90
2023-05-11T09:51:08.065Z,3.20
2023-05-11T09:53:46.372Z,2.90
2023-05-11T09:56:18.665Z,2.90
2023-05-11T09:58:59.790Z,2.90
2023-05-11T10:01:38.104Z,2.30
2023-05-11T10:04:22.788Z,2.50
2023-05-11T10:06:55.874Z,3.00
2023-05-11T10:09:29.143Z,2.70
2023-05-11T10:12:03.051Z,2.90
2023-05-11T10:14:35.378Z,2.90
2023-05-11T10:17:08.036Z,3.10
2023-05-11T10:19:41.244Z,3.10
2023-05-11T10:22:13.865Z,2.80
2023-05-11T10:24:47.002Z,2.10
2023-05-11T10:27:19.605Z,2.40
2023-05-11T10:29:52.648Z,2.60
2023-05-11T10:32:25.001Z,2.40
2023-05-11T10:35:00.365Z,3.20
2023-05-11T10:37:35.967Z,2.50
2023-05-11T10:40:11.004Z,2.40
2023-05-11T10:43:09.755Z,4.10
2023-05-11T10:45:50.693Z,2.40
2023-05-11T10:48:49.013Z,2.50
2023-05-11T10:51:55.137Z,3.00
2023-05-11T10:54:40.792Z,2.50
2023-05-11T10:57:19.480Z,2.20
2023-05-11T11:00:31.951Z,2.70
2023-05-11T11:03:12.758Z,2.70
2023-05-11T11:05:45.469Z,4.20
2023-05-11T11:08:17.997Z,2.50
2023-05-11T11:10:51.691Z,2.60
2023-05-11T11:13:24.554Z,2.60
2023-05-11T11:16:15.408Z,2.50
2023-05-11T11:18:48.716Z,4.30
2023-05-11T11:21:42.873Z,2.70
2023-05-11T11:24:47.967Z,2.40
2023-05-11T11:27:20.098Z,2.50
2023-05-11T11:30:18.940Z,2.10
2023-05-11T11:32:53.206Z,2.70
2023-05-11T11:35:49.097Z,2.50
2023-05-11T11:38:23.410Z,2.10
2023-05-11T11:40:55.959Z,2.30
2023-05-11T11:43:30.028Z,2.90
2023-05-11T11:46:03.771Z,4.20
2023-05-11T11:48:36.454Z,2.80
2023-05-11T11:51:10.685Z,2.40
2023-05-11T11:54:09.134Z,2.20
2023-05-11T11:56:43.889Z,1.90
2023-05-11T11:59:16.983Z,2.20
2023-05-11T12:01:55.011Z,2.50
2023-05-11T12:04:46.251Z,2.20
2023-05-11T12:07:20.186Z,2.60
2023-05-11T12:09:53.678Z,2.50
2023-05-11T12:12:26.408Z,2.30
2023-05-11T12:15:00.086Z,2.20
2023-05-11T12:17:34.694Z,2.20
2023-05-11T12:20:17.911Z,2.70
2023-05-11T12:22:51.016Z,3.10
2023-05-11T12:25:23.655Z,2.10
2023-05-11T12:27:58.764Z,1.80
2023-05-11T12:30:33.017Z,2.50
2023-05-11T12:33:08.008Z,1.60
2023-05-11T12:35:40.503Z,2.10
2023-05-11T12:38:13.895Z,2.00
2023-05-11T12:40:51.361Z,2.10
2023-05-11T12:43:25.766Z,2.00
2023-05-11T12:45:58.094Z,2.20
2023-05-11T12:48:30.389Z,2.20
2023-05-11T12:51:02.593Z,1.90
2023-05-11T12:53:38.316Z,2.00
2023-05-11T12:56:10.634Z,1.80
2023-05-11T12:58:43.265Z,1.90
2023-05-11T13:01:16.105Z,2.10
2023-05-11T13:03:48.972Z,1.80
2023-05-11T13:06:23.063Z,1.90
2023-05-11T13:08:55.707Z,1.80
2023-05-11T13:11:31.369Z,1.90
2023-05-11T13:14:18.352Z,1.90
2023-05-11T13:16:56.947Z,2.00
2023-05-11T13:19:32.366Z,2.40
2023-05-11T13:22:04.784Z,1.90
2023-05-11T13:24:36.995Z,2.20
2023-05-11T13:27:11.957Z,1.80
2023-05-11T13:29:44.074Z,1.70
2023-05-11T13:32:16.349Z,1.90
2023-05-11T13:34:48.658Z,1.90
2023-05-11T13:37:20.686Z,10.30
2023-05-11T13:39:52.900Z,3.90
2023-05-11T13:42:25.166Z,3.30
2023-05-11T13:44:57.467Z,2.50
2023-05-11T13:47:29.646Z,13.00
2023-05-11T13:50:01.925Z,3.80
2023-05-11T13:52:34.075Z,2.50
2023-05-11T13:55:06.935Z,4.80
2023-05-11T13:57:39.156Z,2.50
2023-05-11T14:00:15.168Z,3.20
2023-05-11T14:02:49.735Z,2.50
2023-05-11T14:05:22.345Z,3.20
2023-05-11T14:07:54.927Z,16.50
2023-05-11T14:10:27.395Z,4.40
2023-05-11T14:12:59.615Z,4.10
2023-05-11T14:15:31.793Z,2.60
2023-05-11T14:18:05.282Z,2.60
2023-05-11T14:20:39.953Z,2.70
2023-05-11T14:23:12.072Z,2.70
2023-05-11T14:25:44.324Z,2.80
2023-05-11T14:28:16.625Z,3.50
2023-05-11T14:30:48.803Z,3.30
2023-05-11T14:33:21.024Z,2.90
2023-05-11T14:35:53.623Z,2.90
2023-05-11T14:38:25.825Z,6.60
2023-05-11T14:40:58.023Z,5.60
2023-05-11T14:43:30.570Z,2.90
2023-05-11T14:46:02.939Z,2.60
2023-05-11T14:48:35.089Z,3.60
2023-05-11T14:51:07.377Z,3.20
2023-05-11T14:53:39.572Z,3.20
2023-05-11T14:56:12.241Z,3.00
2023-05-11T14:58:44.382Z,2.50
2023-05-11T15:01:23.745Z,2.60
2023-05-11T15:03:57.150Z,2.80
2023-05-11T15:06:30.396Z,2.70
2023-05-11T15:09:02.568Z,3.20
2023-05-11T15:11:35.019Z,2.80
2023-05-11T15:14:08.012Z,2.90
2023-05-11T15:16:40.750Z,3.00
2023-05-11T15:19:13.066Z,3.00
2023-05-11T15:21:45.291Z,3.70
2023-05-11T15:24:17.444Z,4.00
2023-05-11T15:26:49.633Z,3.20
2023-05-11T15:29:22.371Z,4.20
2023-05-11T15:31:54.660Z,2.80
2023-05-11T15:34:27.470Z,2.70
2023-05-11T15:37:00.372Z,2.90
2023-05-11T15:39:32.564Z,3.30
2023-05-11T15:42:05.254Z,2.60
2023-05-11T15:44:37.581Z,3.00
2023-05-11T15:47:10.010Z,3.30
2023-05-11T15:49:42.545Z,2.50
2023-05-11T15:52:14.826Z,2.60
2023-05-11T15:54:46.984Z,3.30
2023-05-11T15:57:21.510Z,3.30
2023-05-11T15:59:54.203Z,5.70
2023-05-11T16:02:26.580Z,3.70
2023-05-11T16:04:58.948Z,2.80
2023-05-11T16:07:31.608Z,2.80
2023-05-11T16:10:04.429Z,2.20
2023-05-11T16:12:38.059Z,2.70
2023-05-11T16:15:12.254Z,4.30
2023-05-11T16:17:48.416Z,4.00
2023-05-11T16:20:20.825Z,4.50
2023-05-11T16:22:53.150Z,5.90
2023-05-11T16:25:26.883Z,8.20
2023-05-11T16:27:58.997Z,5.50
2023-05-11T16:30:31.799Z,3.90
2023-05-11T16:33:04.350Z,3.70
2023-05-11T16:35:39.321Z,7.00
2023-05-11T16:38:20.332Z,5.60
2023-05-11T16:40:52.645Z,4.80
2023-05-11T16:43:24.802Z,3.70
2023-05-11T16:45:56.936Z,3.40
2023-05-11T16:48:29.378Z,5.40
2023-05-11T16:51:01.591Z,5.00
2023-05-11T16:53:33.906Z,6.20
2023-05-11T16:56:06.983Z,5.80
2023-05-11T16:58:39.431Z,7.00
2023-05-11T17:01:12.346Z,6.40
2023-05-11T17:03:44.761Z,9.00
2023-05-11T17:06:20.881Z,5.80
2023-05-11T17:08:53.599Z,6.80
2023-05-11T17:11:28.629Z,5.00
2023-05-11T17:14:01.256Z,4.60
2023-05-11T17:16:33.803Z,4.20
2023-05-11T17:19:06.173Z,7.60
2023-05-11T17:21:38.523Z,13.50
2023-05-11T17:24:11.020Z,5.90
2023-05-11T17:26:47.737Z,8.50
2023-05-11T17:29:26.929Z,4.10
2023-05-11T17:32:00.678Z,4.40
2023-05-11T17:34:33.063Z,3.80
2023-05-11T17:37:05.557Z,4.30
2023-05-11T17:39:37.862Z,4.40
2023-05-11T17:42:11.994Z,3.70
2023-05-11T17:44:45.460Z,4.00
2023-05-11T17:47:17.570Z,4.10
2023-05-11T17:49:49.796Z,4.50
2023-05-11T17:52:22.049Z,4.70
2023-05-11T17:54:54.475Z,5.30
2023-05-11T17:57:28.485Z,6.30
2023-05-11T18:00:00.703Z,6.40
2023-05-11T18:02:32.955Z,5.60
2023-05-11T18:05:06.388Z,5.90
2023-05-11T18:07:38.500Z,6.40
2023-05-11T18:10:12.284Z,6.20
2023-05-11T18:12:44.559Z,6.80
2023-05-11T18:15:17.162Z,7.50
2023-05-11T18:17:49.702Z,9.60
2023-05-11T18:20:22.347Z,8.30
2023-05-11T18:22:56.918Z,9.10
2023-05-11T18:25:32.009Z,9.90
2023-05-11T18:28:05.044Z,10.00
2023-05-11T18:30:37.772Z,9.70
2023-05-11T18:33:10.043Z,9.80
2023-05-11T18:35:42.327Z,9.30
2023-05-11T18:38:14.580Z,8.90
2023-05-11T18:40:46.990Z,8.90
2023-05-11T18:43:19.152Z,7.70
2023-05-11T18:45:52.952Z,7.30
2023-05-11T18:48:25.009Z,5.70
2023-05-11T18:50:59.944Z,6.30
2023-05-11T18:53:32.401Z,5.30
2023-05-11T18:56:04.847Z,5.50
2023-05-11T18:58:37.207Z,5.80
2023-05-11T19:01:15.318Z,5.70
2023-05-11T19:03:47.615Z,5.50
2023-05-11T19:06:19.786Z,6.00
2023-05-11T19:08:53.837Z,6.30
2023-05-11T19:11:27.225Z,5.50
2023-05-11T19:13:59.730Z,5.80
2023-05-11T19:16:35.832Z,6.10
2023-05-11T19:19:08.293Z,6.50
2023-05-11T19:21:42.584Z,7.60
2023-05-11T19:24:15.881Z,7.30
2023-05-11T19:27:02.588Z,8.00
2023-05-11T19:29:41.591Z,7.70
2023-05-11T19:32:14.256Z,7.50
2023-05-11T19:34:46.821Z,7.90
2023-05-11T19:37:18.950Z,7.30
2023-05-11T19:39:51.215Z,7.30
2023-05-11T19:42:38.272Z,7.40
2023-05-11T19:45:31.476Z,7.10
2023-05-11T19:48:03.783Z,7.00
2023-05-11T19:50:35.977Z,6.40
2023-05-11T19:53:08.185Z,5.60
2023-05-11T19:55:42.476Z,6.60
2023-05-11T19:58:14.618Z,5.30
2023-05-11T20:00:46.920Z,6.40
2023-05-11T20:03:19.141Z,6.30
2023-05-11T20:05:51.641Z,5.90
2023-05-11T20:08:23.837Z,6.60
2023-05-11T20:10:55.993Z,6.20
2023-05-11T20:13:29.687Z,6.50
2023-05-11T20:16:03.917Z,6.50
2023-05-11T20:18:36.438Z,5.90
2023-05-11T20:21:08.594Z,6.10
2023-05-11T20:23:40.839Z,6.50
2023-05-11T20:26:12.987Z,6.50
2023-05-11T20:28:45.176Z,6.10
2023-05-11T20:31:17.356Z,6.30
2023-05-11T20:36:24.977Z,6.20
2023-05-11T20:38:57.225Z,5.80
2023-05-11T20:41:31.062Z,5.60
2023-05-11T20:44:03.731Z,5.90
2023-05-11T20:46:35.914Z,6.50
2023-05-11T20:49:09.349Z,5.90
2023-05-11T20:51:44.467Z,6.40
2023-05-11T20:54:16.738Z,6.40
2023-05-11T20:56:49.429Z,6.50
2023-05-11T21:02:00.877Z,5.80
2023-05-11T21:04:33.852Z,7.10
2023-05-11T21:07:06.354Z,6.20
2023-05-11T21:09:38.538Z,5.70
2023-05-11T21:12:11.349Z,6.40
2023-05-11T21:14:43.609Z,6.40
2023-05-11T21:17:16.146Z,5.90
2023-05-11T21:19:48.657Z,6.20
2023-05-11T21:22:20.927Z,6.20
2023-05-11T21:24:56.225Z,6.10
2023-05-11T21:27:28.379Z,6.00
2023-05-11T21:30:00.551Z,5.60
2023-05-11T21:32:32.674Z,6.10
2023-05-11T21:35:05.233Z,5.50
2023-05-11T21:37:37.406Z,6.40
2023-05-11T21:40:12.515Z,6.10
2023-05-11T21:42:44.798Z,5.90
2023-05-11T21:45:19.931Z,6.80
2023-05-11T21:47:52.263Z,6.30
2023-05-11T21:50:25.384Z,6.20
2023-05-11T21:52:57.529Z,6.90
2023-05-11T21:55:29.672Z,6.70
2023-05-11T21:58:02.587Z,7.60
2023-05-11T22:00:35.008Z,7.10
2023-05-11T22:03:07.221Z,6.70
2023-05-11T22:05:40.846Z,6.50
2023-05-11T22:08:15.490Z,7.40
2023-05-11T22:10:49.167Z,7.00
2023-05-11T22:13:23.336Z,6.80
2023-05-11T22:15:55.524Z,6.70
2023-05-11T22:18:30.413Z,8.00
2023-05-11T22:21:02.870Z,7.90
2023-05-11T22:23:35.420Z,9.20
2023-05-11T22:26:07.802Z,9.20
2023-05-11T22:28:39.887Z,8.50
2023-05-11T22:31:12.307Z,9.80
2023-05-11T22:33:44.506Z,9.50
2023-05-11T22:36:16.630Z,9.40
2023-05-11T22:38:48.784Z,9.70
2023-05-11T22:41:22.044Z,9.00
2023-05-11T22:43:54.304Z,8.60
2023-05-11T22:46:26.885Z,9.40
2023-05-11T22:48:59.178Z,9.10
2023-05-11T22:51:31.360Z,8.70
2023-05-11T22:54:03.532Z,9.50
2023-05-11T22:56:35.730Z,8.80
2023-05-11T22:59:07.988Z,7.90
2023-05-11T23:01:40.675Z,8.30
2023-05-11T23:04:13.005Z,8.80
2023-05-11T23:06:45.052Z,7.40
2023-05-11T23:09:17.234Z,7.90
2023-05-11T23:11:50.497Z,8.30
2023-05-11T23:14:22.936Z,7.40
2023-05-11T23:16:57.186Z,8.30
2023-05-11T23:19:30.017Z,8.10
2023-05-11T23:22:02.357Z,8.10
2023-05-11T23:24:34.589Z,8.10
2023-05-11T23:27:07.257Z,8.40
2023-05-11T23:29:39.521Z,9.30
2023-05-11T23:32:11.736Z,9.70
2023-05-11T23:34:46.402Z,8.90
2023-05-11T23:37:18.629Z,8.70
2023-05-11T23:39:50.781Z,9.40
2023-05-11T23:42:22.921Z,9.30
2023-05-11T23:44:55.180Z,9.40
2023-05-11T23:47:27.454Z,9.80
2023-05-11T23:50:02.269Z,8.10
2023-05-11T23:52:34.486Z,8.70
2023-05-11T23:55:11.013Z,8.40
2023-05-11T23:57:43.893Z,8.80
